Time;durP1;ratioP1;P1;durP2;ratioP2;P2;SDS_P1;SDS_P2;PMS_P1;PMS_P2;Temp;Humidity;BMP_temperature;BMP_pressure;BME280_temperature;BME280_humidity;BME280_pressure;Samples;Min_cycle;Max_cycle;Signal;HPM_P1;HPM_P2
2021/06/19 00:00:19;860469.00;2.87;1486.79;21559.00;0.07;37.97;;;;;28.10;1.00;;;;;;2574819;55;1109;-87
2021/06/19 00:02:47;681105.00;2.27;1174.49;87479.00;0.29;151.95;;;;;28.30;1.00;;;;;;2581706;55;1156;-87
2021/06/19 00:05:15;776334.00;2.59;1339.88;45679.00;0.15;79.71;;;;;28.40;1.00;;;;;;2574937;55;1288;-87
2021/06/19 00:07:42;772559.00;2.58;1333.31;58039.00;0.19;101.09;;;;;28.40;1.00;;;;;;2574977;55;1137;-84
2021/06/19 00:10:13;545156.00;1.82;939.61;21757.00;0.07;38.31;;;;;28.20;1.00;;;;;;2581477;55;1113;-86
2021/06/19 00:12:41;996172.00;3.32;1725.69;94941.00;0.32;164.84;;;;;27.90;1.00;;;;;;2574928;55;1092;-86
2021/06/19 00:15:11;1048010.00;3.49;1817.69;84405.00;0.28;146.65;;;;;27.70;1.00;;;;;;2580872;55;1952;-85
2021/06/19 00:17:39;1607878.00;5.36;2847.80;263527.00;0.88;455.21;;;;;27.70;1.00;;;;;;2581467;55;1168;-84
2021/06/19 00:20:10;793946.00;2.65;1370.57;88770.00;0.30;154.18;;;;;27.50;1.00;;;;;;2581605;55;1079;-85
2021/06/19 00:22:37;711393.00;2.37;1227.00;31487.00;0.10;55.16;;;;;27.50;1.00;;;;;;2581479;55;1145;-85
2021/06/19 00:25:04;906264.00;3.02;1567.12;48611.00;0.16;84.78;;;;;27.40;1.00;;;;;;2580856;55;1371;-85
2021/06/19 00:27:31;1251333.00;4.17;2183.31;204344.00;0.68;353.40;;;;;27.40;1.00;;;;;;2580879;55;995;-85
2021/06/19 00:29:58;929517.00;3.10;1608.02;72620.00;0.24;126.29;;;;;27.30;1.00;;;;;;2580801;55;1078;-83
2021/06/19 00:32:26;1374554.00;4.58;2409.21;19878.00;0.07;35.06;;;;;26.80;1.00;;;;;;2580595;55;1116;-84
2021/06/19 00:34:53;710283.00;2.37;1225.08;102864.00;0.34;178.52;;;;;26.60;1.00;;;;;;2581269;55;1950;-84
2021/06/19 00:37:21;669982.00;2.23;1155.22;74071.00;0.25;128.79;;;;;26.60;1.00;;;;;;2574861;55;1237;-85
2021/06/19 00:39:48;1117991.00;3.73;1942.63;91785.00;0.31;159.39;;;;;26.40;1.00;;;;;;2582187;55;1189;-85
2021/06/19 00:42:19;933537.00;3.11;1615.10;25080.00;0.08;44.07;;;;;26.20;1.00;;;;;;2583514;55;1168;-84
2021/06/19 00:44:46;862900.00;2.88;1491.05;37643.00;0.13;65.81;;;;;26.10;1.00;;;;;;2580838;55;1517;-83
2021/06/19 00:47:13;1110930.00;3.70;1929.98;18438.00;0.06;32.57;;;;;26.10;1.00;;;;;;2581491;55;1120;-85
2021/06/19 00:49:40;1198061.00;3.99;2086.71;170803.00;0.57;295.65;;;;;25.80;1.00;;;;;;2584032;55;1096;-85
2021/06/19 00:52:08;1496755.00;4.99;2637.02;284875.00;0.95;491.92;;;;;25.70;1.00;;;;;;2570848;56;1106;-85
2021/06/19 00:54:37;1046694.00;3.49;1815.35;127394.00;0.42;220.84;;;;;25.80;1.00;;;;;;2568777;56;1910;-86
2021/06/19 00:57:06;771439.00;2.57;1331.36;71517.00;0.24;124.38;;;;;25.80;1.00;;;;;;2569211;56;1382;-85
2021/06/19 00:59:33;959430.00;3.20;1660.75;148114.00;0.49;256.56;;;;;25.50;1.00;;;;;;2571558;56;1701;-84
2021/06/19 01:02:01;1018308.00;3.39;1764.92;76013.00;0.25;132.15;;;;;25.70;1.00;;;;;;2571661;56;1167;-84
2021/06/19 01:04:28;920577.00;3.07;1592.29;111136.00;0.37;192.79;;;;;25.60;1.00;;;;;;2570767;56;1775;-84
2021/06/19 01:06:55;1126655.00;3.76;1958.16;142600.00;0.48;247.05;;;;;25.70;1.00;;;;;;2569125;56;1499;-84
2021/06/19 01:09:22;1402513.00;4.68;2460.99;125647.00;0.42;217.82;;;;;25.60;1.00;;;;;;2570400;55;1448;-84
2021/06/19 01:11:51;766099.00;2.55;1322.06;100450.00;0.33;174.35;;;;;25.40;1.00;;;;;;2580168;55;1085;-85
2021/06/19 01:14:18;905330.00;3.02;1565.48;94968.00;0.32;164.89;;;;;25.30;1.00;;;;;;2573553;55;1961;-85
2021/06/19 01:16:48;630313.00;2.10;1086.59;113223.00;0.38;196.39;;;;;25.20;1.00;;;;;;2583179;55;1333;-85
2021/06/19 01:19:16;883188.00;2.94;1526.61;120127.00;0.40;208.30;;;;;25.20;1.00;;;;;;2580335;55;1180;-85
2021/06/19 01:21:44;617475.00;2.06;1064.40;96134.00;0.32;166.90;;;;;25.40;1.00;;;;;;2583444;55;1683;-83
2021/06/19 01:24:14;823225.00;2.74;1421.66;146408.00;0.49;253.62;;;;;25.60;1.00;;;;;;2580788;55;1113;-84
2021/06/19 01:26:42;824385.00;2.75;1423.68;136790.00;0.46;237.04;;;;;25.80;1.00;;;;;;2582860;55;1365;-84
2021/06/19 01:29:09;570756.00;1.90;983.75;99780.00;0.33;173.19;;;;;26.10;1.00;;;;;;2580548;55;1109;-85
2021/06/19 01:31:38;742636.00;2.48;1281.26;90877.00;0.30;157.82;;;;;26.20;1.00;;;;;;2581092;55;1698;-84
2021/06/19 01:34:05;523226.00;1.74;901.82;68487.00;0.23;119.15;;;;;26.10;1.00;;;;;;2580681;55;1900;-84
2021/06/19 01:36:32;730687.00;2.44;1260.50;90887.00;0.30;157.84;;;;;26.20;1.00;;;;;;2581373;55;1390;-83
2021/06/19 01:39:00;950188.00;3.17;1644.44;163903.00;0.55;283.76;;;;;26.10;1.00;;;;;;2581850;55;1096;-82
2021/06/19 01:41:29;702712.00;2.34;1211.94;73644.00;0.25;128.06;;;;;25.90;1.00;;;;;;2584053;55;1103;-82
2021/06/19 01:44:02;1058595.00;3.53;1836.53;129324.00;0.43;224.16;;;;;25.80;1.00;;;;;;2584114;55;959;-83
2021/06/19 01:46:30;530953.00;1.77;915.13;17849.00;0.06;31.55;;;;;25.90;1.00;;;;;;2581786;55;1337;-84
2021/06/19 01:48:58;857567.00;2.86;1481.71;191526.00;0.64;331.34;;;;;26.00;1.00;;;;;;2583553;55;1046;-84
2021/06/19 01:51:25;684999.00;2.28;1181.23;43661.00;0.15;76.22;;;;;26.10;1.00;;;;;;2584029;55;1284;-83
2021/06/19 01:53:53;829589.00;2.77;1432.78;10534.00;0.04;18.87;;;;;26.00;1.00;;;;;;2581573;55;1948;-84
2021/06/19 01:56:22;743002.00;2.48;1281.89;56652.00;0.19;98.69;;;;;25.90;1.00;;;;;;2581755;55;1431;-84
2021/06/19 01:58:49;662465.00;2.21;1142.21;0.00;0.00;0.62;;;;;26.00;1.00;;;;;;2581915;55;1041;-84
2021/06/19 02:01:17;712572.00;2.38;1229.05;69328.00;0.23;120.60;;;;;25.60;1.00;;;;;;2581124;55;1121;-85
2021/06/19 02:03:45;462483.00;1.54;797.26;0.00;0.00;0.62;;;;;25.50;1.00;;;;;;2581771;55;1197;-84
2021/06/19 02:06:13;1148412.00;3.83;1997.22;76216.00;0.25;132.50;;;;;25.80;1.00;;;;;;2580783;55;1417;-85
2021/06/19 02:08:41;844729.00;2.82;1459.25;65445.00;0.22;113.89;;;;;26.10;1.00;;;;;;2580788;55;1158;-84
2021/06/19 02:11:08;1242767.00;4.14;2167.74;132689.00;0.44;229.97;;;;;26.30;1.00;;;;;;2583095;55;1665;-85
2021/06/19 02:13:36;756947.00;2.52;1306.14;150376.00;0.50;260.46;;;;;26.30;1.00;;;;;;2581210;55;1164;-84
2021/06/19 02:16:05;1233591.00;4.11;2151.07;96322.00;0.32;167.22;;;;;26.30;1.00;;;;;;2582959;55;1962;-85
2021/06/19 02:18:33;926082.00;3.09;1601.98;93394.00;0.31;162.17;;;;;26.50;1.00;;;;;;2580653;55;1086;-85
2021/06/19 02:21:01;839423.00;2.80;1449.97;97157.00;0.32;168.66;;;;;26.50;1.00;;;;;;2581141;55;1175;-84
2021/06/19 02:23:28;822978.00;2.74;1421.23;161316.00;0.54;279.31;;;;;26.60;1.00;;;;;;2583169;55;1053;-85
2021/06/19 02:25:55;759203.00;2.53;1310.06;67530.00;0.23;117.49;;;;;26.60;1.00;;;;;;2581074;55;1284;-85
2021/06/19 02:28:24;672073.00;2.24;1158.84;80561.00;0.27;140.01;;;;;26.30;1.00;;;;;;2583202;55;1199;-84
2021/06/19 02:30:55;828263.00;2.76;1430.46;95908.00;0.32;166.51;;;;;26.10;1.00;;;;;;2583194;55;1059;-85
2021/06/19 02:33:22;1354128.00;4.51;2371.51;398726.00;1.33;687.62;;;;;26.00;1.00;;;;;;2583128;55;1068;-84
2021/06/19 02:35:51;715725.00;2.39;1234.52;113547.00;0.38;196.95;;;;;25.60;1.00;;;;;;2580851;55;1966;-84
2021/06/19 02:38:19;703292.00;2.34;1212.95;50419.00;0.17;87.91;;;;;25.50;1.00;;;;;;2580725;55;1075;-85
2021/06/19 02:40:47;522433.00;1.74;900.46;27561.00;0.09;48.36;;;;;25.40;1.00;;;;;;2580651;55;1144;-84
2021/06/19 02:43:16;653360.00;2.18;1126.45;0.00;0.00;0.62;;;;;25.40;1.00;;;;;;2580924;55;1098;-85
2021/06/19 02:45:43;588484.00;1.96;1014.34;76696.00;0.26;133.33;;;;;25.50;1.00;;;;;;2580687;55;1394;-85
2021/06/19 02:48:10;664580.00;2.22;1145.87;70657.00;0.24;122.90;;;;;25.30;1.00;;;;;;2580914;55;1096;-84
2021/06/19 02:50:40;874829.00;2.92;1511.95;62372.00;0.21;108.58;;;;;25.40;1.00;;;;;;2581132;55;1125;-85
2021/06/19 02:53:11;393093.00;1.31;677.93;62178.00;0.21;108.24;;;;;25.30;1.00;;;;;;2581073;55;1112;-85
2021/06/19 02:55:40;516700.00;1.72;890.58;24589.00;0.08;43.22;;;;;25.30;1.00;;;;;;2581058;55;1909;-85
2021/06/19 02:58:08;367946.00;1.23;634.71;0.00;0.00;0.62;;;;;25.60;1.00;;;;;;2580958;55;1137;-85
2021/06/19 03:00:35;436352.00;1.45;752.31;7703.00;0.03;13.97;;;;;25.60;1.00;;;;;;2580775;55;1096;-85
2021/06/19 03:03:02;668606.00;2.23;1152.84;113224.00;0.38;196.39;;;;;25.60;1.00;;;;;;2581092;55;1108;-83
2021/06/19 03:05:30;727420.00;2.42;1254.82;108135.00;0.36;187.61;;;;;25.70;1.00;;;;;;2582842;55;1360;-83
2021/06/19 03:07:58;1438310.00;4.79;2527.57;300237.00;1.00;518.33;;;;;25.60;1.00;;;;;;2582858;55;1140;-85
2021/06/19 03:10:28;821839.00;2.74;1419.24;76718.00;0.26;133.37;;;;;25.40;1.00;;;;;;2581434;55;1065;-85
2021/06/19 03:12:55;835561.00;2.79;1443.21;120720.00;0.40;209.32;;;;;25.50;1.00;;;;;;2583320;55;1626;-85
2021/06/19 03:15:22;721291.00;2.40;1244.18;83045.00;0.28;144.30;;;;;25.50;1.00;;;;;;2583346;55;1965;-85
2021/06/19 03:17:49;612802.00;2.04;1056.33;96434.00;0.32;167.42;;;;;25.60;1.00;;;;;;2580514;55;1049;-83
2021/06/19 03:20:17;532171.00;1.77;917.23;24573.00;0.08;43.19;;;;;25.60;1.00;;;;;;2582845;55;1092;-83
2021/06/19 03:22:46;787316.00;2.62;1359.01;81351.00;0.27;141.37;;;;;25.40;1.00;;;;;;2583358;55;1042;-84
2021/06/19 03:25:19;1082665.00;3.61;1879.45;99367.00;0.33;172.48;;;;;25.40;1.00;;;;;;2580535;55;1351;-84
2021/06/19 03:27:47;862361.00;2.87;1490.11;100980.00;0.34;175.26;;;;;25.40;1.00;;;;;;2582965;55;1187;-84
2021/06/19 03:30:17;695346.00;2.32;1199.17;82024.00;0.27;142.53;;;;;25.50;1.00;;;;;;2580533;55;1235;-85
2021/06/19 03:32:45;741517.00;2.47;1279.31;28049.00;0.09;49.21;;;;;25.40;1.00;;;;;;2580113;55;1089;-85
2021/06/19 03:35:13;878962.00;2.93;1519.20;156943.00;0.52;271.77;;;;;25.30;1.00;;;;;;2582985;55;1959;-83
2021/06/19 03:37:40;790661.00;2.64;1364.84;101175.00;0.34;175.60;;;;;25.40;1.00;;;;;;2580347;55;1120;-85
2021/06/19 03:40:10;777958.00;2.59;1342.71;190691.00;0.64;329.90;;;;;25.40;1.00;;;;;;2580686;55;1212;-83
2021/06/19 03:42:38;863339.00;2.88;1491.82;1926.00;0.01;3.96;;;;;25.60;1.00;;;;;;2580542;55;1244;-83
2021/06/19 03:45:09;703224.00;2.34;1212.83;81707.00;0.27;141.99;;;;;25.60;1.00;;;;;;2582801;55;1346;-83
2021/06/19 03:47:38;621501.00;2.07;1071.36;33785.00;0.11;59.13;;;;;25.40;1.00;;;;;;2580544;55;1104;-85
2021/06/19 03:50:06;550082.00;1.83;948.10;1189.00;0.00;2.68;;;;;25.10;1.00;;;;;;2580758;55;1131;-85
2021/06/19 03:52:33;594154.00;1.98;1024.13;54267.00;0.18;94.56;;;;;25.00;1.00;;;;;;2580330;55;1136;-84
2021/06/19 03:55:00;393088.00;1.31;677.92;0.00;0.00;0.62;;;;;24.90;1.00;;;;;;2581910;55;1961;-84
2021/06/19 03:57:29;535895.00;1.79;923.65;0.00;0.00;0.62;;;;;24.90;1.00;;;;;;2581136;55;1152;-84
2021/06/19 03:59:56;1161970.00;3.87;2021.61;138995.00;0.46;240.84;;;;;25.10;1.00;;;;;;2581662;55;1203;-83
2021/06/19 04:02:25;506849.00;1.69;873.62;17670.00;0.06;31.24;;;;;25.20;1.00;;;;;;2581774;55;1256;-83
2021/06/19 04:04:54;397383.00;1.32;685.31;21998.00;0.07;38.73;;;;;25.20;1.00;;;;;;2580956;55;1328;-84
2021/06/19 04:07:21;325834.00;1.09;562.33;0.00;0.00;0.62;;;;;25.20;1.00;;;;;;2569669;55;1151;-84
2021/06/19 04:09:52;551342.00;1.84;950.27;100310.00;0.33;174.11;;;;;24.90;1.00;;;;;;2581700;55;1121;-83
2021/06/19 04:12:21;235147.00;0.78;406.40;51252.00;0.17;89.35;;;;;24.70;1.00;;;;;;2581746;55;1131;-84
2021/06/19 04:14:48;240208.00;0.80;415.11;0.00;0.00;0.62;;;;;24.80;1.00;;;;;;2581676;55;1905;-84
2021/06/19 04:17:15;157675.00;0.53;273.03;6173.00;0.02;11.32;;;;;24.90;1.00;;;;;;2581302;55;1128;-84
2021/06/19 04:19:43;563533.00;1.88;971.29;60074.00;0.20;104.60;;;;;25.00;1.00;;;;;;2580621;55;1145;-84
2021/06/19 04:22:12;100641.00;0.34;174.68;0.00;0.00;0.62;;;;;25.00;1.00;;;;;;2583069;55;1179;-84
2021/06/19 04:24:40;272147.00;0.91;470.04;0.00;0.00;0.62;;;;;25.00;1.00;;;;;;2580619;55;1117;-84
2021/06/19 04:27:13;272767.00;0.91;471.10;39309.00;0.13;68.69;;;;;25.00;1.00;;;;;;2580500;55;1344;-84
2021/06/19 04:29:41;31917.00;0.11;55.90;0.00;0.00;0.62;;;;;24.70;1.00;;;;;;2580572;55;1108;-83
2021/06/19 04:32:09;131370.00;0.44;227.69;25549.00;0.09;44.88;;;;;24.80;1.00;;;;;;2580256;55;1719;-84
2021/06/19 04:34:36;80517.00;0.27;139.93;0.00;0.00;0.62;;;;;25.00;1.00;;;;;;2581745;55;1953;-82
2021/06/19 04:37:05;421765.00;1.41;727.23;57523.00;0.19;100.19;;;;;25.10;1.00;;;;;;2584074;55;1266;-81
2021/06/19 04:39:32;223999.00;0.75;387.22;22768.00;0.08;40.06;;;;;25.20;1.00;;;;;;2580530;55;1106;-83
2021/06/19 04:42:03;178540.00;0.60;308.98;21959.00;0.07;38.66;;;;;24.90;1.00;;;;;;2582497;55;1144;-84
2021/06/19 04:44:43;248247.00;0.83;428.94;47253.00;0.16;82.44;;;;;24.60;1.00;;;;;;2580679;55;1106;-84
2021/06/19 04:47:10;401575.00;1.34;692.51;19782.00;0.07;34.89;;;;;24.40;1.00;;;;;;2580794;55;1293;-84
2021/06/19 04:49:37;329599.00;1.10;568.80;0.00;0.00;0.62;;;;;24.70;1.00;;;;;;2582895;55;1139;-85
2021/06/19 04:52:06;169623.00;0.57;293.62;0.00;0.00;0.62;;;;;25.00;1.00;;;;;;2581662;55;1140;-84
2021/06/19 04:54:38;334743.00;1.12;577.64;62150.00;0.21;108.19;;;;;24.70;1.00;;;;;;2581273;55;1212;-83
2021/06/19 04:57:07;329953.00;1.10;569.41;0.00;0.00;0.62;;;;;24.90;1.00;;;;;;2580991;55;1448;-84
2021/06/19 04:59:34;166628.00;0.56;288.46;0.00;0.00;0.62;;;;;25.20;1.00;;;;;;2581014;55;1161;-85
2021/06/19 05:02:02;102477.00;0.34;177.85;4934.00;0.02;9.17;;;;;25.30;1.00;;;;;;2582288;55;1106;-84
2021/06/19 05:04:29;490640.00;1.64;845.71;113907.00;0.38;197.57;;;;;25.60;1.00;;;;;;2583071;55;1156;-85
2021/06/19 05:06:56;174040.00;0.58;301.23;0.00;0.00;0.62;;;;;25.60;1.00;;;;;;2580594;55;1271;-84
2021/06/19 05:09:24;161136.00;0.54;279.00;0.00;0.00;0.62;;;;;25.50;1.00;;;;;;2582990;55;1129;-85
2021/06/19 05:11:51;159929.00;0.53;276.92;30325.00;0.10;53.15;;;;;25.70;1.00;;;;;;2580409;55;1621;-85
2021/06/19 05:14:18;429237.00;1.43;740.07;109411.00;0.36;189.81;;;;;25.80;1.00;;;;;;2580869;55;1112;-84
2021/06/19 05:16:46;61880.00;0.21;107.73;0.00;0.00;0.62;;;;;26.10;1.00;;;;;;2580664;55;1956;-85
2021/06/19 05:19:13;424369.00;1.41;731.70;115166.00;0.38;199.74;;;;;26.00;1.00;;;;;;2580598;55;1165;-84
2021/06/19 05:21:40;396281.00;1.32;683.41;0.00;0.00;0.62;;;;;26.20;1.00;;;;;;2580513;55;1232;-85
2021/06/19 05:24:09;628332.00;2.09;1083.17;49004.00;0.16;85.46;;;;;26.20;1.00;;;;;;2580041;55;1112;-83
2021/06/19 05:26:37;366357.00;1.22;631.98;24182.00;0.08;42.51;;;;;26.10;1.00;;;;;;2579774;55;1681;-83
2021/06/19 05:29:04;435734.00;1.45;751.25;0.00;0.00;0.62;;;;;26.10;1.00;;;;;;2580049;55;1104;-84
2021/06/19 05:31:31;528892.00;1.76;911.58;61465.00;0.20;107.01;;;;;26.40;1.00;;;;;;2579868;55;1617;-83
2021/06/19 05:33:58;561569.00;1.87;967.91;17792.00;0.06;31.45;;;;;26.80;1.00;;;;;;2579679;55;1282;-85
2021/06/19 05:36:25;453960.00;1.51;782.59;18227.00;0.06;32.20;;;;;27.00;1.00;;;;;;2579406;55;2000;-84
2021/06/19 05:38:52;858023.00;2.86;1482.51;251069.00;0.84;433.79;;;;;27.10;1.00;;;;;;2581862;55;1042;-84
2021/06/19 05:41:19;591683.00;1.97;1019.86;24838.00;0.08;43.65;;;;;27.60;1.00;;;;;;2580648;55;1154;-84
2021/06/19 05:43:48;665762.00;2.22;1147.92;42005.00;0.14;73.36;;;;;28.50;1.00;;;;;;2581125;55;1140;-86
2021/06/19 05:46:15;501841.00;1.67;864.99;87622.00;0.29;152.20;;;;;29.60;1.00;;;;;;2581024;55;1354;-86
2021/06/19 05:48:42;1005521.00;3.35;1742.25;134710.00;0.45;233.45;;;;;31.00;1.00;;;;;;2581148;55;1087;-86
2021/06/19 05:51:09;799708.00;2.67;1380.61;113277.00;0.38;196.48;;;;;32.10;1.00;;;;;;2581426;55;1160;-85
2021/06/19 05:53:36;687300.00;2.29;1185.22;62318.00;0.21;108.48;;;;;33.00;1.00;;;;;;2581774;55;1107;-83
2021/06/19 05:56:03;492898.00;1.64;849.60;31550.00;0.11;55.27;;;;;34.10;1.00;;;;;;2580329;55;1906;-84
2021/06/19 05:58:30;1028857.00;3.43;1783.65;62163.00;0.21;108.22;;;;;34.90;1.00;;;;;;2582704;55;1099;-84
2021/06/19 06:00:58;934847.00;3.12;1617.41;42211.00;0.14;73.71;;;;;35.70;1.00;;;;;;2580444;55;1127;-84
2021/06/19 06:03:25;760517.00;2.54;1312.35;139773.00;0.47;242.18;;;;;35.60;1.00;;;;;;2574557;55;1090;-83
2021/06/19 06:05:52;464567.00;1.55;800.84;22305.00;0.07;39.26;;;;;35.90;1.00;;;;;;2582396;55;1688;-84
2021/06/19 06:08:19;809219.00;2.70;1397.21;23889.00;0.08;42.00;;;;;36.10;1.00;;;;;;2581826;55;1104;-84
2021/06/19 06:10:46;721887.00;2.41;1245.21;7589.00;0.03;13.77;;;;;36.60;1.00;;;;;;2581842;55;1085;-86
2021/06/19 06:13:13;678304.00;2.26;1169.64;49514.00;0.17;86.35;;;;;36.70;1.00;;;;;;2581678;55;1104;-86
2021/06/19 06:15:40;1402838.00;4.68;2461.59;176060.00;0.59;304.70;;;;;37.20;1.00;;;;;;2581583;55;1969;-86
2021/06/19 06:18:08;1043874.00;3.48;1810.33;50024.00;0.17;87.23;;;;;37.80;1.00;;;;;;2581431;55;1140;-86
2021/06/19 06:20:35;724142.00;2.41;1249.13;8665.00;0.03;15.64;;;;;38.00;1.00;;;;;;2581064;55;1148;-86
2021/06/19 06:23:02;815846.00;2.72;1408.77;39549.00;0.13;69.11;;;;;38.60;1.00;;;;;;2581094;55;1152;-86
2021/06/19 06:25:29;833842.00;2.78;1440.21;18357.00;0.06;32.42;;;;;39.00;1.00;;;;;;2581427;55;1363;-86
2021/06/19 06:27:56;767462.00;2.56;1324.43;49513.00;0.17;86.34;;;;;39.60;1.00;;;;;;2580991;55;1651;-86
2021/06/19 06:30:24;1111687.00;3.71;1931.34;34587.00;0.12;60.52;;;;;38.50;1.00;;;;;;2583535;55;946;-86
2021/06/19 06:32:51;1103363.00;3.68;1916.44;102260.00;0.34;177.47;;;;;38.50;1.00;;;;;;2580952;55;1146;-86
2021/06/19 06:35:19;1036221.00;3.45;1796.73;119353.00;0.40;206.97;;;;;38.50;1.00;;;;;;2580348;55;1945;-87
2021/06/19 06:37:46;834810.00;2.78;1441.90;34336.00;0.11;60.09;;;;;38.80;1.00;;;;;;2580710;55;1147;-86
2021/06/19 06:40:14;1082847.00;3.61;1879.78;45939.00;0.15;80.16;;;;;38.50;1.00;;;;;;2581264;55;1155;-87
2021/06/19 06:42:42;1044391.00;3.48;1811.25;82997.00;0.28;144.21;;;;;38.50;1.00;;;;;;2581030;55;1177;-87
2021/06/19 06:45:10;1079308.00;3.60;1873.46;39329.00;0.13;68.73;;;;;39.20;1.00;;;;;;2580489;55;1351;-86
2021/06/19 06:47:38;1052101.00;3.51;1824.97;19979.00;0.07;35.23;;;;;39.70;1.00;;;;;;2582947;55;1081;-87
2021/06/19 06:50:07;1738252.00;5.79;3099.99;304791.00;1.02;526.16;;;;;40.00;1.00;;;;;;2580981;55;1137;-87
2021/06/19 06:52:36;1279370.00;4.26;2234.40;120378.00;0.40;208.73;;;;;40.00;1.00;;;;;;2581435;55;1069;-87
2021/06/19 06:55:04;1223070.00;4.08;2131.99;110063.00;0.37;190.94;;;;;40.50;1.00;;;;;;2581582;55;1324;-87
2021/06/19 06:57:31;699174.00;2.33;1205.81;97221.00;0.32;168.77;;;;;40.20;1.00;;;;;;2581686;55;1960;-85
2021/06/19 06:59:58;751045.00;2.50;1295.87;101501.00;0.34;176.16;;;;;39.00;1.00;;;;;;2581276;55;1157;-85
2021/06/19 07:02:25;551306.00;1.84;950.21;44057.00;0.15;76.91;;;;;38.70;1.00;;;;;;2583896;55;1073;-85
2021/06/19 07:04:52;161487.00;0.54;279.60;44986.00;0.15;78.51;;;;;39.30;1.00;;;;;;2581300;55;1353;-85
2021/06/19 07:07:19;481787.00;1.61;830.47;83344.00;0.28;144.81;;;;;39.00;1.00;;;;;;2581392;55;1030;-84
2021/06/19 07:09:47;234993.00;0.78;406.14;52456.00;0.17;91.43;;;;;39.50;1.00;;;;;;2581355;55;1061;-84
2021/06/19 07:12:14;226601.00;0.76;391.70;47632.00;0.16;83.09;;;;;39.10;1.00;;;;;;2581484;55;1027;-84
2021/06/19 07:14:41;747607.00;2.49;1289.90;124799.00;0.42;216.36;;;;;39.60;1.00;;;;;;2574806;55;1037;-85
2021/06/19 07:17:09;289689.00;0.97;500.19;56301.00;0.19;98.08;;;;;39.20;1.00;;;;;;2581474;55;1952;-84
2021/06/19 07:19:39;201973.00;0.67;349.32;57178.00;0.19;99.60;;;;;39.80;1.00;;;;;;2581211;55;1637;-84
2021/06/19 07:22:07;826862.00;2.76;1428.01;351929.00;1.17;607.18;;;;;39.60;1.00;;;;;;2581339;55;1105;-86
2021/06/19 07:24:34;59183.00;0.20;103.06;0.00;0.00;0.62;;;;;40.60;1.00;;;;;;2580406;55;1120;-86
2021/06/19 07:27:04;96427.00;0.32;167.40;2330.00;0.01;4.66;;;;;40.80;1.00;;;;;;2573749;55;1369;-86
2021/06/19 07:29:31;99726.00;0.33;173.10;0.00;0.00;0.62;;;;;41.50;1.00;;;;;;2580693;55;1066;-86
2021/06/19 07:31:58;86976.00;0.29;151.09;0.00;0.00;0.62;;;;;40.60;1.00;;;;;;2583625;55;1140;-85
2021/06/19 07:34:27;259292.00;0.86;447.93;82065.00;0.27;142.60;;;;;41.00;1.00;;;;;;2581714;55;1061;-86
2021/06/19 07:36:54;347669.00;1.16;599.85;100620.00;0.34;174.64;;;;;41.40;1.00;;;;;;2581370;55;1909;-85
2021/06/19 07:39:21;277551.00;0.93;479.33;57.00;0.00;0.72;;;;;40.70;1.00;;;;;;2580488;55;1149;-86
2021/06/19 07:41:48;611285.00;2.04;1053.71;0.00;0.00;0.62;;;;;40.70;1.00;;;;;;2579734;55;1185;-86
2021/06/19 07:44:16;65934.00;0.22;114.73;0.00;0.00;0.62;;;;;40.90;1.00;;;;;;2580281;55;1086;-86
2021/06/19 07:46:46;38774.00;0.13;67.77;2569.00;0.01;5.07;;;;;40.20;1.00;;;;;;2582814;55;1331;-85
2021/06/19 07:49:13;129012.00;0.43;223.63;49641.00;0.17;86.57;;;;;40.70;1.00;;;;;;2580308;55;1147;-86
2021/06/19 07:51:40;134206.00;0.45;232.58;0.00;0.00;0.62;;;;;40.70;1.00;;;;;;2579887;55;1120;-86
2021/06/19 07:54:07;149881.00;0.50;259.60;29336.00;0.10;51.43;;;;;40.40;1.00;;;;;;2579802;55;1219;-85
2021/06/19 07:56:34;496681.00;1.66;856.11;78400.00;0.26;136.27;;;;;40.00;1.00;;;;;;2580966;55;1979;-86
2021/06/19 07:59:01;82354.00;0.27;143.10;0.00;0.00;0.62;;;;;39.50;1.00;;;;;;2581167;55;1108;-85
2021/06/19 08:01:29;0.00;0.00;0.62;0.00;0.00;0.62;;;;;39.10;1.00;;;;;;2581085;55;1067;-86
2021/06/19 08:03:56;10077.00;0.03;18.08;0.00;0.00;0.62;;;;;38.70;1.00;;;;;;2583701;55;1161;-85
2021/06/19 08:06:23;126566.00;0.42;219.41;0.00;0.00;0.62;;;;;38.70;1.00;;;;;;2581249;55;1407;-86
2021/06/19 08:08:50;635587.00;2.12;1095.71;197848.00;0.66;342.22;;;;;38.50;1.00;;;;;;2574191;55;1047;-86
2021/06/19 08:11:17;965557.00;3.22;1671.56;50028.00;0.17;87.23;;;;;38.30;1.00;;;;;;2573521;55;1172;-86
2021/06/19 08:13:44;651056.00;2.17;1122.46;117261.00;0.39;203.36;;;;;38.80;1.00;;;;;;2583494;55;1156;-86
2021/06/19 08:16:15;117722232.00;392.41;66085660.00;74726.00;0.25;129.93;;;;;38.90;1.00;;;;;;2580333;55;1902;-86
2021/06/19 08:18:43;614209.00;2.05;1058.76;93248.00;0.31;161.92;;;;;39.00;1.00;;;;;;2583619;55;1057;-84
2021/06/19 08:21:10;0.00;0.00;0.62;0.00;0.00;0.62;;;;;39.60;1.00;;;;;;2581598;55;1152;-86
2021/06/19 08:23:37;21350.00;0.07;37.61;0.00;0.00;0.62;;;;;39.60;1.00;;;;;;2583773;55;1101;-86
2021/06/19 08:26:04;323487.00;1.08;558.29;0.00;0.00;0.62;;;;;40.10;1.00;;;;;;2574340;55;1419;-85
2021/06/19 08:28:34;271692.00;0.91;469.25;35205.00;0.12;61.59;;;;;39.90;1.00;;;;;;2574594;55;987;-85
2021/06/19 08:31:01;192481.00;0.64;332.98;10470.00;0.03;18.76;;;;;39.40;1.00;;;;;;2583493;55;1108;-85
2021/06/19 08:33:28;110649.00;0.37;191.95;0.00;0.00;0.62;;;;;39.20;1.00;;;;;;2583995;55;897;-85
2021/06/19 08:35:56;276230.00;0.92;477.06;0.00;0.00;0.62;;;;;39.20;1.00;;;;;;2583982;55;1960;-85
2021/06/19 08:38:23;473656.00;1.58;816.48;113432.00;0.38;196.75;;;;;38.50;1.00;;;;;;2583775;55;1679;-84
2021/06/19 08:40:51;0.00;0.00;0.62;0.00;0.00;0.62;;;;;37.80;1.00;;;;;;2581741;55;1094;-83
2021/06/19 08:43:19;40255.00;0.13;70.33;0.00;0.00;0.62;;;;;37.20;1.00;;;;;;2583755;55;1599;-84
2021/06/19 08:45:48;185037.00;0.62;320.16;54444.00;0.18;94.87;;;;;37.20;1.00;;;;;;2581796;55;1310;-83
2021/06/19 08:48:17;64887.00;0.22;112.92;0.00;0.00;0.62;;;;;37.50;1.00;;;;;;2581804;55;1059;-84
2021/06/19 08:50:46;411414.00;1.37;709.43;65944.00;0.22;114.75;;;;;37.50;1.00;;;;;;2581822;55;1085;-85
2021/06/19 08:53:16;856759.00;2.86;1480.30;21503.00;0.07;37.87;;;;;37.50;1.00;;;;;;2581704;55;1135;-85
2021/06/19 08:55:43;696866.00;2.32;1201.80;68611.00;0.23;119.36;;;;;37.90;1.00;;;;;;2581732;55;1453;-85
2021/06/19 08:58:10;1259312.00;4.20;2197.83;86845.00;0.29;150.86;;;;;37.70;1.00;;;;;;2581667;55;1970;-84
2021/06/19 09:00:37;865739.00;2.89;1496.02;41992.00;0.14;73.33;;;;;37.80;1.00;;;;;;2581722;55;1088;-84
2021/06/19 09:03:05;419036.00;1.40;722.53;23682.00;0.08;41.65;;;;;38.20;1.00;;;;;;2581890;55;1097;-84
2021/06/19 09:05:32;952078.00;3.17;1647.78;120336.00;0.40;208.66;;;;;37.40;1.00;;;;;;2581847;55;1351;-84
2021/06/19 09:07:59;711681.00;2.37;1227.50;129843.00;0.43;225.06;;;;;37.40;1.00;;;;;;2581930;55;1133;-84
2021/06/19 09:10:32;284518.00;0.95;491.30;70016.00;0.23;121.79;;;;;37.40;1.00;;;;;;2581836;55;1019;-83
2021/06/19 09:13:08;75241.00;0.25;130.82;0.00;0.00;0.62;;;;;36.00;1.00;;;;;;2581915;55;1157;-83
2021/06/19 09:15:39;147314.00;0.49;255.18;0.00;0.00;0.62;;;;;36.20;1.00;;;;;;2581916;55;1427;-84
2021/06/19 09:18:09;312610.00;1.04;539.60;105199.00;0.35;182.55;;;;;36.30;1.00;;;;;;2581691;55;1936;-84
2021/06/19 09:20:39;191988.00;0.64;332.13;43392.00;0.14;75.76;;;;;36.20;1.00;;;;;;2581873;55;1104;-83
2021/06/19 09:23:07;19960.00;0.07;35.20;0.00;0.00;0.62;;;;;36.10;1.00;;;;;;2581834;55;1145;-84
2021/06/19 09:25:36;243195.00;0.81;420.25;105517.00;0.35;183.09;;;;;36.30;1.00;;;;;;2581805;55;1390;-83
2021/06/19 09:28:06;97264.00;0.32;168.85;0.00;0.00;0.62;;;;;36.10;1.00;;;;;;2581881;55;1094;-83
2021/06/19 09:30:35;129283.00;0.43;224.09;0.00;0.00;0.62;;;;;36.10;1.00;;;;;;2581866;55;1238;-83